createdAt,value
2019-05-12T00:03:41.191Z,10.04
2019-05-12T00:08:48.711Z,10.08
2019-05-12T00:13:54.720Z,10.15
2019-05-12T00:19:01.575Z,10.19
2019-05-12T00:24:13.120Z,10.10
2019-05-12T00:29:19.871Z,10.16
2019-05-12T00:34:25.937Z,10.19
2019-05-12T00:39:31.716Z,10.19
2019-05-12T00:44:39.042Z,10.37
2019-05-12T00:49:45.314Z,10.24
2019-05-12T00:54:51.101Z,10.35
2019-05-12T00:59:58.206Z,10.15
2019-05-12T01:05:08.700Z,10.10
2019-05-12T01:10:14.867Z,10.25
2019-05-12T01:15:20.689Z,10.42
2019-05-12T01:20:28.268Z,10.28
2019-05-12T01:25:34.482Z,10.35
2019-05-12T01:30:40.396Z,10.38
2019-05-12T01:35:48.330Z,10.34
2019-05-12T01:40:53.765Z,10.23
2019-05-12T01:45:59.707Z,10.29
2019-05-12T01:51:05.502Z,10.12
2019-05-12T01:56:11.207Z,10.18
2019-05-12T02:01:18.482Z,10.21
2019-05-12T02:06:24.523Z,10.13
2019-05-12T02:11:33.276Z,10.12
2019-05-12T02:16:39.241Z,9.98
2019-05-12T02:21:45.013Z,10.12
2019-05-12T02:26:50.972Z,9.98
2019-05-12T02:31:59.055Z,10.02
2019-05-12T02:37:05.676Z,9.91
2019-05-12T02:42:11.580Z,10.14
2019-05-12T02:47:17.500Z,9.96
2019-05-12T02:52:24.975Z,10.10
2019-05-12T02:57:34.360Z,10.04
2019-05-12T03:02:44.212Z,10.14
2019-05-12T03:07:49.940Z,10.04
2019-05-12T03:12:55.743Z,9.89
2019-05-12T03:18:06.232Z,9.93
2019-05-12T03:23:10.008Z,9.77
2019-05-12T03:28:16.281Z,9.78
2019-05-12T03:33:33.560Z,9.86
2019-05-12T03:38:31.205Z,9.80
2019-05-12T03:43:37.246Z,9.85
2019-05-12T03:48:45.411Z,9.86
2019-05-12T03:53:50.557Z,9.78
2019-05-12T03:58:56.635Z,9.72
2019-05-12T04:04:05.143Z,9.71
2019-05-12T04:09:10.273Z,9.81
2019-05-12T04:14:16.016Z,9.72
2019-05-12T04:19:24.725Z,9.88
2019-05-12T04:24:29.368Z,9.65
2019-05-12T04:29:35.234Z,9.76
2019-05-12T04:34:41.005Z,9.73
2019-05-12T04:39:46.771Z,9.76
2019-05-12T04:44:55.262Z,9.80
2019-05-12T04:50:00.154Z,9.90
2019-05-12T04:55:06.846Z,9.80
2019-05-12T05:00:15.699Z,9.82
2019-05-12T05:05:20.843Z,9.65
2019-05-12T05:10:26.706Z,10.02
2019-05-12T05:15:34.700Z,9.86
2019-05-12T05:20:43.661Z,9.92
2019-05-12T05:25:49.076Z,10.18
2019-05-12T05:30:55.011Z,10.39
2019-05-12T05:36:00.881Z,10.47
2019-05-12T05:41:10.486Z,10.54
2019-05-12T05:46:14.465Z,10.23
2019-05-12T05:51:20.337Z,10.32
2019-05-12T05:56:38.758Z,10.52
2019-05-12T06:01:34.722Z,10.34
2019-05-12T06:06:50.101Z,10.37
2019-05-12T06:11:50.377Z,10.58
2019-05-12T06:16:56.147Z,10.38
2019-05-12T06:22:03.918Z,10.50
2019-05-12T06:27:18.661Z,10.77
2019-05-12T06:32:16.933Z,10.66
2019-05-12T06:37:23.694Z,10.60
2019-05-12T06:42:29.542Z,11.19
2019-05-12T06:47:39.243Z,11.02
2019-05-12T06:52:46.753Z,10.92
2019-05-12T06:57:50.423Z,11.17
2019-05-12T07:02:56.272Z,11.22
2019-05-12T07:08:04.202Z,11.67
2019-05-12T07:13:13.978Z,11.74
2019-05-12T07:18:25.945Z,11.10
2019-05-12T07:23:30.151Z,11.04
2019-05-12T07:28:40.176Z,11.10
2019-05-12T07:33:45.897Z,10.97
2019-05-12T07:38:55.846Z,11.08
2019-05-12T07:44:03.607Z,11.63
2019-05-12T07:49:09.823Z,11.70
2019-05-12T07:54:15.662Z,11.83
2019-05-12T07:59:26.619Z,12.06
2019-05-12T08:04:36.810Z,11.56
2019-05-12T08:09:36.677Z,12.25
2019-05-12T08:14:43.979Z,11.40
2019-05-12T08:19:50.029Z,12.06
2019-05-12T08:24:56.000Z,11.52
2019-05-12T08:30:04.058Z,12.07
2019-05-12T08:35:09.285Z,13.29
2019-05-12T08:40:15.656Z,12.62
2019-05-12T08:45:25.745Z,12.65
2019-05-12T08:50:31.785Z,13.22
2019-05-12T08:55:36.293Z,13.18
2019-05-12T09:00:46.343Z,13.48
2019-05-12T09:05:50.575Z,13.79
2019-05-12T09:10:56.266Z,14.11
2019-05-12T09:16:04.224Z,13.70
2019-05-12T09:21:09.310Z,14.08
2019-05-12T09:26:18.718Z,13.72
2019-05-12T09:31:25.436Z,13.57
2019-05-12T09:36:29.795Z,13.72
2019-05-12T09:41:42.878Z,13.53
2019-05-12T09:46:44.009Z,13.71
2019-05-12T09:51:49.866Z,14.07
2019-05-12T09:56:59.620Z,13.92
2019-05-12T10:02:03.736Z,14.21
2019-05-12T10:07:09.696Z,13.12
2019-05-12T10:12:15.305Z,13.33
2019-05-12T10:17:26.248Z,14.48
2019-05-12T10:22:40.205Z,14.43
2019-05-12T10:27:46.783Z,14.57
2019-05-12T10:32:52.514Z,14.48
2019-05-12T10:38:06.197Z,14.62
2019-05-12T10:43:07.913Z,14.55
2019-05-12T10:48:14.276Z,14.99
2019-05-12T10:53:20.166Z,14.81
2019-05-12T10:58:27.155Z,14.73
2019-05-12T11:03:33.788Z,15.17
2019-05-12T11:08:41.422Z,15.29
2019-05-12T11:13:59.833Z,15.39
2019-05-12T11:19:10.367Z,15.45
2019-05-12T11:24:13.857Z,15.17
2019-05-12T11:29:20.822Z,14.95
2019-05-12T11:34:26.798Z,14.98
2019-05-12T11:39:36.777Z,15.52
2019-05-12T11:44:40.587Z,15.08
2019-05-12T11:49:46.455Z,15.31
2019-05-12T11:54:53.873Z,15.58
2019-05-12T12:00:02.125Z,15.74
2019-05-12T12:05:08.090Z,15.44
2019-05-12T12:10:15.600Z,15.20
2019-05-12T12:15:26.426Z,15.69
2019-05-12T12:20:28.955Z,15.67
2019-05-12T12:25:34.900Z,15.88
2019-05-12T12:30:41.001Z,15.70
2019-05-12T12:35:50.584Z,15.20
2019-05-12T12:40:54.908Z,15.39
2019-05-12T12:46:02.313Z,15.17
2019-05-12T12:51:09.197Z,15.88
2019-05-12T12:56:27.699Z,15.79
2019-05-12T13:01:28.626Z,15.85
2019-05-12T13:06:34.414Z,15.86
2019-05-12T13:11:39.757Z,15.29
2019-05-12T13:16:49.387Z,15.02
2019-05-12T13:21:53.271Z,15.57
2019-05-12T13:26:59.511Z,15.91
2019-05-12T13:32:06.520Z,16.06
2019-05-12T13:37:15.504Z,15.41
2019-05-12T13:42:20.507Z,15.27
2019-05-12T13:47:29.146Z,15.30
2019-05-12T13:52:34.139Z,15.38
2019-05-12T13:57:49.743Z,15.44
2019-05-12T14:02:49.006Z,15.55
2019-05-12T14:07:57.031Z,15.65
2019-05-12T14:13:03.530Z,15.42
2019-05-12T14:18:10.257Z,15.31
2019-05-12T14:23:17.507Z,15.54
2019-05-12T14:28:23.568Z,15.59
2019-05-12T14:33:37.506Z,15.33
2019-05-12T14:38:37.864Z,15.31
2019-05-12T14:43:47.664Z,15.35
2019-05-12T14:48:50.953Z,15.19
2019-05-12T14:53:56.741Z,15.01
2019-05-12T14:59:03.507Z,15.12
2019-05-12T15:04:09.514Z,15.42
2019-05-12T15:09:20.203Z,15.63
2019-05-12T15:14:24.532Z,15.67
2019-05-12T15:19:33.434Z,15.36
2019-05-12T15:24:39.294Z,15.90
2019-05-12T15:29:45.236Z,15.56
2019-05-12T15:34:51.030Z,15.82
2019-05-12T15:39:56.886Z,15.97
2019-05-12T15:45:06.519Z,16.30
2019-05-12T15:50:10.947Z,16.53
2019-05-12T15:55:18.398Z,16.83
2019-05-12T16:00:24.514Z,15.92
2019-05-12T16:05:31.219Z,14.84
2019-05-12T16:10:38.715Z,15.52
2019-05-12T16:15:49.404Z,16.92
2019-05-12T16:20:53.624Z,16.31
2019-05-12T16:26:01.297Z,15.58
2019-05-12T16:31:08.847Z,16.60
2019-05-12T16:36:14.884Z,15.89
2019-05-12T16:41:26.250Z,19.74
2019-05-12T16:46:30.274Z,14.93
2019-05-12T16:51:37.252Z,18.39
2019-05-12T16:56:43.464Z,18.30
2019-05-12T17:01:49.399Z,18.56
2019-05-12T17:06:55.757Z,15.58
2019-05-12T17:12:01.685Z,17.72
2019-05-12T17:17:10.604Z,17.01
2019-05-12T17:22:17.465Z,17.50
2019-05-12T17:27:25.160Z,16.31
2019-05-12T17:32:30.590Z,14.19
2019-05-12T17:37:40.261Z,13.69
2019-05-12T17:42:44.961Z,14.56
2019-05-12T17:47:55.013Z,14.32
2019-05-12T17:53:00.197Z,13.65
2019-05-12T17:58:06.317Z,14.16
2019-05-12T18:03:21.443Z,14.66
2019-05-12T18:08:24.048Z,14.32
2019-05-12T18:13:28.269Z,13.24
2019-05-12T18:18:37.917Z,12.97
2019-05-12T18:23:43.612Z,12.87
2019-05-12T18:28:49.753Z,12.65
2019-05-12T18:33:57.185Z,12.57
2019-05-12T21:20:24.462Z,10.09
2019-05-12T21:25:30.270Z,9.90
2019-05-12T21:30:36.368Z,9.81
2019-05-12T21:35:45.782Z,9.89
2019-05-12T21:40:49.519Z,9.87
2019-05-12T21:45:55.449Z,9.75
2019-05-12T21:51:03.982Z,9.72
2019-05-12T21:56:08.873Z,9.62
2019-05-12T22:01:15.118Z,9.63
2019-05-12T22:06:24.858Z,9.60
2019-05-12T22:11:29.286Z,9.52
2019-05-12T22:16:43.250Z,9.43
2019-05-12T22:21:49.417Z,9.45
2019-05-12T22:26:54.197Z,9.36
2019-05-12T22:31:59.313Z,9.29
2019-05-12T22:37:05.168Z,9.33
2019-05-12T22:42:11.543Z,9.28
2019-05-12T22:47:18.480Z,9.25
2019-05-12T22:52:24.428Z,9.23
2019-05-12T22:57:35.587Z,9.30
2019-05-12T23:02:37.795Z,9.30
2019-05-12T23:07:44.021Z,9.07
2019-05-12T23:12:50.417Z,9.03
2019-05-12T23:17:57.557Z,9.02
2019-05-12T23:23:04.103Z,9.00
2019-05-12T23:28:10.884Z,8.94
2019-05-12T23:33:17.943Z,8.88
2019-05-12T23:38:24.621Z,8.78
2019-05-12T23:43:30.605Z,8.71
2019-05-12T23:48:36.292Z,8.66
2019-05-12T23:53:42.760Z,8.61
2019-05-12T23:58:48.844Z,8.55
